createdAt,value
2018-06-04T00:02:30.289Z,21.70
2018-06-04T00:05:11.626Z,21.87
2018-06-04T00:07:54.011Z,20.63
2018-06-04T00:10:35.472Z,22.90
2018-06-04T00:13:16.804Z,24.57
2018-06-04T00:15:58.504Z,20.90
2018-06-04T00:18:39.802Z,19.93
2018-06-04T00:21:21.097Z,22.10
2018-06-04T00:24:02.464Z,20.03
2018-06-04T00:26:43.797Z,18.37
2018-06-04T00:29:25.714Z,18.90
2018-06-04T00:32:07.314Z,17.77
2018-06-04T00:34:48.645Z,21.07
2018-06-04T00:37:30.497Z,24.00
2018-06-04T00:40:11.921Z,21.33
2018-06-04T00:42:53.989Z,19.50
2018-06-04T00:45:35.388Z,18.00
2018-06-04T00:48:16.719Z,20.23
2018-06-04T00:50:58.497Z,16.00
2018-06-04T00:53:39.796Z,16.30
2018-06-04T00:56:23.004Z,17.27
2018-06-04T00:59:04.478Z,20.73
2018-06-04T01:01:45.751Z,21.23
2018-06-04T01:04:27.303Z,18.37
2018-06-04T01:07:08.724Z,22.43
2018-06-04T01:09:50.082Z,22.30
2018-06-04T01:12:31.417Z,20.40
2018-06-04T01:15:12.621Z,21.57
2018-06-04T01:17:54.589Z,22.50
2018-06-04T01:20:35.922Z,22.17
2018-06-04T01:23:17.367Z,20.47
2018-06-04T01:25:58.752Z,18.90
2018-06-04T01:28:40.031Z,18.17
2018-06-04T01:31:21.480Z,19.77
2018-06-04T01:34:02.681Z,18.57
2018-06-04T01:36:44.004Z,23.47
2018-06-04T01:39:25.722Z,20.80
2018-06-04T01:42:07.108Z,19.57
2018-06-04T01:44:48.454Z,18.67
2018-06-04T01:47:30.050Z,20.13
2018-06-04T01:50:11.527Z,19.17
2018-06-04T01:52:53.056Z,24.33
2018-06-04T01:55:34.338Z,21.27
2018-06-04T01:58:15.672Z,19.87
2018-06-04T02:01:23.056Z,23.43
2018-06-04T02:04:06.304Z,22.73
2018-06-04T02:06:47.597Z,22.40
2018-06-04T02:09:29.248Z,29.23
2018-06-04T02:12:10.515Z,22.00
2018-06-04T02:14:53.263Z,21.83
2018-06-04T02:17:34.523Z,25.93
2018-06-04T02:20:16.008Z,23.80
2018-06-04T02:22:57.480Z,22.37
2018-06-04T02:25:38.892Z,25.77
2018-06-04T02:28:20.421Z,23.17
2018-06-04T02:31:01.827Z,21.80
2018-06-04T02:33:43.276Z,23.03
2018-06-04T02:36:24.793Z,19.73
2018-06-04T02:39:08.148Z,20.77
2018-06-04T02:41:49.392Z,19.97
2018-06-04T02:44:31.171Z,19.37
2018-06-04T02:47:12.539Z,18.93
2018-06-04T02:49:54.181Z,20.50
2018-06-04T02:52:35.426Z,24.30
2018-06-04T02:55:16.707Z,21.47
2018-06-04T02:57:58.167Z,21.80
2018-06-04T03:00:39.429Z,24.83
2018-06-04T03:03:21.433Z,23.80
2018-06-04T03:06:02.629Z,20.70
2018-06-04T03:08:44.306Z,21.37
2018-06-04T03:11:26.445Z,24.50
2018-06-04T03:14:07.900Z,20.07
2018-06-04T03:16:52.296Z,22.27
2018-06-04T03:19:33.736Z,22.43
2018-06-04T03:22:15.370Z,22.30
2018-06-04T03:24:56.980Z,21.40
2018-06-04T03:27:38.413Z,22.57
2018-06-04T03:30:20.492Z,22.73
2018-06-04T03:33:01.844Z,20.47
2018-06-04T03:35:43.296Z,22.43
2018-06-04T03:38:24.885Z,20.87
2018-06-04T03:41:06.734Z,22.43
2018-06-04T03:43:48.061Z,18.60
2018-06-04T03:46:30.233Z,20.93
2018-06-04T03:49:12.073Z,18.40
2018-06-04T03:51:54.384Z,19.47
2018-06-04T03:54:35.552Z,18.27
2018-06-04T03:57:16.820Z,20.43
2018-06-04T03:59:58.243Z,20.23
2018-06-04T04:02:39.561Z,20.13
2018-06-04T04:05:21.946Z,19.90
2018-06-04T04:08:03.141Z,22.60
2018-06-04T04:10:44.497Z,19.13
2018-06-04T04:13:26.552Z,17.67
2018-06-04T04:16:07.958Z,18.20
2018-06-04T04:18:49.212Z,19.50
2018-06-04T04:21:30.648Z,18.70
2018-06-04T04:24:11.910Z,16.87
2018-06-04T04:26:54.356Z,17.73
2018-06-04T04:29:35.644Z,18.80
2018-06-04T04:32:16.839Z,18.80
2018-06-04T04:34:58.472Z,19.40
2018-06-04T04:37:39.749Z,19.90
2018-06-04T04:40:22.131Z,19.37
2018-06-04T04:43:03.501Z,19.27
2018-06-04T04:45:44.908Z,20.23
2018-06-04T04:48:26.336Z,21.97
2018-06-04T04:51:08.028Z,22.23
2018-06-04T04:53:49.446Z,20.37
2018-06-04T04:56:30.922Z,23.70
2018-06-04T04:59:12.243Z,22.23
2018-06-04T05:01:54.116Z,22.97
2018-06-04T05:04:35.392Z,23.17
2018-06-04T05:07:16.605Z,23.27
2018-06-04T05:09:57.964Z,22.07
2018-06-04T05:12:39.315Z,24.43
2018-06-04T05:15:21.541Z,20.23
2018-06-04T05:18:02.681Z,24.07
2018-06-04T05:20:44.004Z,28.00
2018-06-04T05:23:26.098Z,22.87
2018-06-04T05:26:07.347Z,21.90
2018-06-04T05:28:48.816Z,19.70
2018-06-04T05:31:31.366Z,20.77
2018-06-04T05:34:12.704Z,22.70
2018-06-04T05:36:54.501Z,22.87
2018-06-04T05:39:35.920Z,22.60
2018-06-04T05:42:20.496Z,21.30
2018-06-04T05:45:01.640Z,22.80
2018-06-04T05:47:42.984Z,19.10
2018-06-04T05:50:25.520Z,18.70
2018-06-04T05:53:06.940Z,18.57
2018-06-04T05:55:48.226Z,21.43
2018-06-04T05:58:29.985Z,20.70
2018-06-04T06:01:12.332Z,24.03
2018-06-04T06:03:54.185Z,19.83
2018-06-04T06:06:35.493Z,21.90
2018-06-04T06:09:16.942Z,24.20
2018-06-04T06:11:58.224Z,28.27
2018-06-04T06:14:39.521Z,27.63
2018-06-04T06:17:21.770Z,24.00
2018-06-04T06:20:03.226Z,26.37
2018-06-04T06:22:44.662Z,25.30
2018-06-04T06:25:26.008Z,28.50
2018-06-04T06:28:07.440Z,27.93
2018-06-04T06:30:48.794Z,29.97
2018-06-04T06:33:30.704Z,24.83
2018-06-04T06:36:12.075Z,21.27
2018-06-04T06:38:53.417Z,17.80
2018-06-04T06:42:05.532Z,17.87
2018-06-04T06:44:47.279Z,18.83
2018-06-04T06:47:29.060Z,20.43
2018-06-04T06:50:10.617Z,22.23
2018-06-04T06:52:53.408Z,21.57
2018-06-04T06:55:34.742Z,25.63
2018-06-04T06:58:16.125Z,18.60
2018-06-04T07:00:57.901Z,16.77
2018-06-04T07:03:39.381Z,11.37
2018-06-04T07:06:21.703Z,12.70
2018-06-04T07:09:05.400Z,14.13
2018-06-04T07:11:46.749Z,15.53
2018-06-04T07:14:28.066Z,14.37
2018-06-04T07:17:09.286Z,13.70
2018-06-04T07:19:51.376Z,11.10
2018-06-04T07:22:32.969Z,13.23
2018-06-04T07:25:14.216Z,11.57
2018-06-04T07:27:55.321Z,14.33
2018-06-04T07:30:36.532Z,15.60
2018-06-04T07:33:17.901Z,15.67
2018-06-04T07:36:11.960Z,12.40
2018-06-04T07:38:53.262Z,12.80
2018-06-04T07:41:34.406Z,12.50
2018-06-04T07:44:15.738Z,12.93
2018-06-04T07:46:58.205Z,12.70
2018-06-04T07:49:39.692Z,13.03
2018-06-04T07:52:22.094Z,14.73
2018-06-04T07:55:03.492Z,12.83
2018-06-04T07:57:44.779Z,12.17
2018-06-04T08:00:26.288Z,11.73
2018-06-04T08:03:07.556Z,15.80
2018-06-04T08:05:48.841Z,12.83
2018-06-04T08:08:30.223Z,13.40
2018-06-04T08:11:11.516Z,11.77
2018-06-04T08:13:53.412Z,12.63
2018-06-04T08:16:34.696Z,15.03
2018-06-04T08:19:16.021Z,13.83
2018-06-04T08:21:57.493Z,12.30
2018-06-04T08:24:38.789Z,12.00
2018-06-04T08:27:21.407Z,13.33
2018-06-04T08:30:03.033Z,13.23
2018-06-04T08:32:44.577Z,13.10
2018-06-04T08:35:26.095Z,13.60
2018-06-04T08:38:07.590Z,14.40
2018-06-04T08:40:48.878Z,14.23
2018-06-04T08:43:30.365Z,14.13
2018-06-04T08:46:11.664Z,14.90
2018-06-04T08:48:53.458Z,14.43
2018-06-04T08:51:34.893Z,17.10
2018-06-04T08:54:19.016Z,14.17
2018-06-04T08:57:00.628Z,14.67
2018-06-04T08:59:42.010Z,14.67
2018-06-04T09:02:23.323Z,14.37
2018-06-04T09:05:05.336Z,13.67
2018-06-04T09:07:46.725Z,15.23
2018-06-04T09:10:28.010Z,15.43
2018-06-04T09:13:09.156Z,14.83
2018-06-04T09:15:51.455Z,15.10
2018-06-04T09:18:32.961Z,15.73
2018-06-04T09:21:14.249Z,14.23
2018-06-04T09:23:56.290Z,14.33
2018-06-04T09:26:37.728Z,12.67
2018-06-04T09:29:19.017Z,14.27
2018-06-04T09:32:00.407Z,14.63
2018-06-04T09:34:41.829Z,14.50
2018-06-04T09:37:23.423Z,14.53
2018-06-04T09:40:04.832Z,14.70
2018-06-04T09:42:46.171Z,14.03
2018-06-04T09:45:27.662Z,15.13
2018-06-04T09:48:09.105Z,14.40
2018-06-04T09:50:51.320Z,15.87
2018-06-04T09:53:33.541Z,13.93
2018-06-04T09:56:14.819Z,14.97
2018-06-04T09:58:56.085Z,18.40
2018-06-04T10:01:37.902Z,14.53
2018-06-04T10:04:19.383Z,13.80
2018-06-04T10:07:00.470Z,13.97
2018-06-04T10:09:41.689Z,14.17
2018-06-04T10:12:23.156Z,13.27
2018-06-04T10:15:04.357Z,14.13
2018-06-04T10:17:45.919Z,13.57
2018-06-04T10:20:27.999Z,13.57
2018-06-04T10:23:09.422Z,13.77
2018-06-04T10:25:51.535Z,12.70
2018-06-04T10:28:32.982Z,12.43
2018-06-04T10:31:14.298Z,12.00
2018-06-04T10:33:56.178Z,11.90
2018-06-04T10:36:37.534Z,11.83
2018-06-04T10:39:18.803Z,12.67
2018-06-04T10:42:00.145Z,12.03
2018-06-04T10:44:41.512Z,11.67
2018-06-04T10:47:24.400Z,11.27
2018-06-04T10:50:05.716Z,11.40
2018-06-04T10:52:47.078Z,11.17
2018-06-04T10:55:28.315Z,11.47
2018-06-04T10:58:09.493Z,12.53
2018-06-04T11:00:51.402Z,11.23
2018-06-04T11:03:32.953Z,12.40
2018-06-04T11:06:14.386Z,12.03
2018-06-04T11:08:56.146Z,13.00
2018-06-04T11:11:37.600Z,13.47
2018-06-04T11:14:18.998Z,12.90
2018-06-04T11:17:00.293Z,12.27
2018-06-04T11:19:41.772Z,13.70
2018-06-04T11:22:23.218Z,12.80
2018-06-04T11:25:04.559Z,12.93
2018-06-04T11:27:45.814Z,12.33
2018-06-04T11:30:27.199Z,12.50
2018-06-04T11:33:08.526Z,11.40
2018-06-04T11:35:50.308Z,11.13
2018-06-04T11:38:31.860Z,11.37
2018-06-04T11:41:13.423Z,10.57
2018-06-04T11:43:55.399Z,11.73
2018-06-04T11:46:36.779Z,11.50
2018-06-04T11:49:18.032Z,12.03
2018-06-04T11:52:00.112Z,11.90
2018-06-04T11:54:41.741Z,12.60
2018-06-04T11:57:23.250Z,11.67
2018-06-04T12:00:04.574Z,11.97
2018-06-04T12:02:45.935Z,12.57
2018-06-04T12:05:28.129Z,11.97
2018-06-04T12:08:09.536Z,12.37
2018-06-04T12:10:51.735Z,13.07
2018-06-04T12:13:33.052Z,11.60
2018-06-04T12:16:14.723Z,11.07
2018-06-04T12:18:57.184Z,12.07
2018-06-04T12:21:38.787Z,13.10
2018-06-04T12:24:20.418Z,16.87
2018-06-04T12:27:01.666Z,11.07
2018-06-04T12:29:44.693Z,11.53
2018-06-04T12:32:26.079Z,13.57
2018-06-04T12:35:07.604Z,11.30
2018-06-04T12:37:48.921Z,10.70
2018-06-04T12:40:30.307Z,10.93
2018-06-04T12:43:12.004Z,10.97
2018-06-04T12:45:54.355Z,11.20
2018-06-04T12:48:35.694Z,11.40
2018-06-04T12:51:16.936Z,13.30
2018-06-04T12:53:58.431Z,21.37
2018-06-04T12:56:40.148Z,14.73
2018-06-04T12:59:23.213Z,11.77
2018-06-04T13:02:04.544Z,10.47
2018-06-04T13:04:45.842Z,9.63
2018-06-04T13:07:27.060Z,10.53
2018-06-04T13:10:08.535Z,9.50
2018-06-04T13:12:50.219Z,10.57
2018-06-04T13:15:31.398Z,9.83
2018-06-04T13:18:12.806Z,10.70
2018-06-04T13:20:54.892Z,11.13
2018-06-04T13:23:36.366Z,11.80
2018-06-04T13:26:17.731Z,11.43
2018-06-04T13:28:59.604Z,11.97
2018-06-04T13:31:41.110Z,11.57
2018-06-04T13:34:23.539Z,12.23
2018-06-04T13:37:04.885Z,12.77
2018-06-04T13:39:46.804Z,11.50
2018-06-04T13:42:28.639Z,13.47
2018-06-04T13:45:10.052Z,11.20
2018-06-04T13:47:51.766Z,11.97
2018-06-04T13:50:33.063Z,11.77
2018-06-04T13:53:14.319Z,11.73
2018-06-04T13:55:55.979Z,11.27
2018-06-04T13:58:37.431Z,11.00
2018-06-04T14:01:18.872Z,10.87
2018-06-04T14:04:00.335Z,11.03
2018-06-04T14:06:41.833Z,10.70
2018-06-04T14:09:23.383Z,11.33
2018-06-04T14:12:04.577Z,11.10
2018-06-04T14:14:46.145Z,11.90
2018-06-04T14:17:27.642Z,10.80
2018-06-04T14:20:08.813Z,11.63
2018-06-04T14:22:50.768Z,11.53
2018-06-04T14:25:32.184Z,12.40
2018-06-04T14:28:13.538Z,10.87
2018-06-04T14:30:55.478Z,10.50
2018-06-04T14:33:37.175Z,11.20
2018-06-04T14:36:20.423Z,11.13
2018-06-04T14:39:01.916Z,11.17
2018-06-04T14:41:43.341Z,10.97
2018-06-04T14:44:25.889Z,13.87
2018-06-04T14:47:07.250Z,11.93
2018-06-04T14:49:48.614Z,12.73
2018-06-04T14:52:30.166Z,12.27
2018-06-04T14:55:11.479Z,12.37
2018-06-04T14:57:53.356Z,12.83
2018-06-04T15:00:34.733Z,13.77
2018-06-04T15:03:16.834Z,12.70
2018-06-04T15:05:58.367Z,13.53
2018-06-04T15:08:39.639Z,13.30
2018-06-04T15:11:22.032Z,12.30
2018-06-04T15:14:03.642Z,12.87
2018-06-04T15:16:45.057Z,13.30
2018-06-04T15:19:26.564Z,13.60
2018-06-04T15:22:08.637Z,14.70
2018-06-04T15:24:50.381Z,14.50
2018-06-04T15:27:31.873Z,14.83
2018-06-04T15:30:13.291Z,15.40
2018-06-04T15:32:55.494Z,15.03
2018-06-04T15:35:37.553Z,17.23
2018-06-04T15:38:19.046Z,15.63
2018-06-04T15:41:02.032Z,15.10
2018-06-04T15:43:44.304Z,14.47
2018-06-04T15:46:26.163Z,14.90
2018-06-04T15:49:07.530Z,15.90
2018-06-04T15:51:48.899Z,15.43
2018-06-04T15:54:30.341Z,14.73
2018-06-04T15:57:11.847Z,14.70
2018-06-04T15:59:53.357Z,14.30
2018-06-04T16:02:34.734Z,16.00
2018-06-04T16:05:16.265Z,15.33
2018-06-04T16:07:57.713Z,15.60
2018-06-04T16:10:39.447Z,15.10
2018-06-04T16:13:21.454Z,14.73
2018-06-04T16:16:03.257Z,15.17
2018-06-04T16:18:52.052Z,14.53
2018-06-04T16:21:33.756Z,14.77
2018-06-04T16:24:15.219Z,16.50
2018-06-04T16:26:56.764Z,16.03
2018-06-04T16:29:38.304Z,16.23
2018-06-04T16:32:19.800Z,17.53
2018-06-04T16:35:02.025Z,16.57
2018-06-04T16:37:43.951Z,18.53
2018-06-04T16:40:25.927Z,16.73
2018-06-04T16:43:07.800Z,16.27
2018-06-04T16:45:49.322Z,16.40
2018-06-04T16:48:30.581Z,16.53
2018-06-04T16:51:12.021Z,15.60
2018-06-04T16:53:54.705Z,16.47
2018-06-04T16:56:38.451Z,23.87
2018-06-04T16:59:19.878Z,19.57
2018-06-04T17:02:01.411Z,16.57
2018-06-04T17:04:42.992Z,16.23
2018-06-04T17:07:24.857Z,15.90
2018-06-04T17:10:06.474Z,17.27
2018-06-04T17:12:47.754Z,18.53
2018-06-04T17:15:29.069Z,17.40
2018-06-04T17:18:10.431Z,17.73
2018-06-04T17:20:52.269Z,19.77
2018-06-04T17:23:33.670Z,18.83
2018-06-04T17:26:16.128Z,20.23
2018-06-04T17:28:57.603Z,19.00
2018-06-04T17:31:39.223Z,17.33
2018-06-04T17:34:22.795Z,18.47
2018-06-04T17:37:04.436Z,24.83
2018-06-04T17:39:45.935Z,20.30
2018-06-04T17:42:27.353Z,17.83
2018-06-04T17:45:08.705Z,18.70
2018-06-04T17:47:50.137Z,18.97
2018-06-04T17:50:31.540Z,17.20
2018-06-04T17:53:13.121Z,21.70
2018-06-04T17:55:54.967Z,20.87
2018-06-04T17:58:36.519Z,18.97
2018-06-04T18:01:17.807Z,22.13
2018-06-04T18:03:59.831Z,20.60
2018-06-04T18:06:41.165Z,19.23
2018-06-04T18:09:24.044Z,22.53
2018-06-04T18:12:05.484Z,22.67
2018-06-04T18:14:46.893Z,20.80
2018-06-04T18:17:28.315Z,19.40
2018-06-04T18:20:12.667Z,18.67
2018-06-04T18:22:54.232Z,17.57
2018-06-04T18:25:35.624Z,18.33
2018-06-04T18:28:16.971Z,18.57
2018-06-04T18:30:59.007Z,18.50
2018-06-04T18:33:40.238Z,19.13
2018-06-04T18:36:22.351Z,19.37
2018-06-04T18:39:04.393Z,21.87
2018-06-04T18:41:45.903Z,22.43
2018-06-04T18:44:27.328Z,21.43
2018-06-04T18:47:08.835Z,22.70
2018-06-04T18:49:50.226Z,20.73
2018-06-04T18:52:31.879Z,21.77
2018-06-04T18:55:13.777Z,21.40
2018-06-04T18:57:55.649Z,20.70
2018-06-04T19:00:37.141Z,20.57
2018-06-04T19:03:18.695Z,20.27
2018-06-04T19:06:00.849Z,20.23
2018-06-04T19:08:43.089Z,20.20
2018-06-04T19:11:25.079Z,21.87
2018-06-04T19:14:06.802Z,21.93
2018-06-04T19:16:48.255Z,21.70
2018-06-04T19:19:29.615Z,22.73
2018-06-04T19:22:11.079Z,21.97
2018-06-04T19:24:53.123Z,21.67
2018-06-04T19:27:34.464Z,23.23
2018-06-04T19:30:17.918Z,21.73
2018-06-04T19:32:59.420Z,20.93
2018-06-04T19:35:41.096Z,24.77
2018-06-04T19:38:24.238Z,22.97
2018-06-04T19:41:07.048Z,23.00
2018-06-04T19:43:48.542Z,23.50
2018-06-04T19:46:30.038Z,23.20
2018-06-04T19:49:11.478Z,23.23
2018-06-04T19:51:53.964Z,23.33
2018-06-04T19:54:35.384Z,21.80
2018-06-04T19:57:16.776Z,23.83
2018-06-04T19:59:58.622Z,24.07
2018-06-04T20:02:40.140Z,29.00
2018-06-04T20:05:22.767Z,23.67
2018-06-04T20:08:04.217Z,24.13
2018-06-04T20:10:45.706Z,27.70
2018-06-04T20:13:27.094Z,24.17
2018-06-04T20:16:08.607Z,22.27
2018-06-04T20:18:50.204Z,21.20
2018-06-04T20:21:35.168Z,20.43
2018-06-04T20:24:17.140Z,20.27
2018-06-04T20:26:58.511Z,20.37
2018-06-04T20:29:40.138Z,20.57
2018-06-04T20:32:22.371Z,20.50
2018-06-04T20:35:04.786Z,28.23
2018-06-04T20:37:46.333Z,20.83
2018-06-04T20:40:27.967Z,22.37
2018-06-04T20:43:09.419Z,25.00
2018-06-04T20:45:51.300Z,25.17
2018-06-04T20:48:33.924Z,24.77
2018-06-04T20:51:15.286Z,25.83
2018-06-04T20:53:56.837Z,22.90
2018-06-04T20:56:39.088Z,21.87
2018-06-04T20:59:21.196Z,20.40
2018-06-04T21:02:03.591Z,23.90
2018-06-04T21:04:45.055Z,20.73
2018-06-04T21:07:26.852Z,20.37
2018-06-04T21:10:08.448Z,22.37
2018-06-04T21:12:49.918Z,19.53
2018-06-04T21:15:31.257Z,22.00
2018-06-04T21:18:12.801Z,20.30
2018-06-04T21:20:55.063Z,20.90
2018-06-04T21:23:37.169Z,23.13
2018-06-04T21:26:18.622Z,21.13
2018-06-04T21:29:00.771Z,21.37
2018-06-04T21:31:42.235Z,25.53
2018-06-04T21:34:35.621Z,21.27
2018-06-04T21:37:17.308Z,20.97
2018-06-04T21:39:58.690Z,22.10
2018-06-04T21:42:40.067Z,20.37
2018-06-04T21:45:22.572Z,20.07
2018-06-04T21:48:04.211Z,20.23
2018-06-04T21:50:45.755Z,21.23
2018-06-04T21:53:27.142Z,21.30
2018-06-04T21:56:08.796Z,22.47
2018-06-04T21:58:50.327Z,24.53
2018-06-04T22:01:32.334Z,24.03
2018-06-04T22:04:13.791Z,24.97
2018-06-04T22:06:55.895Z,26.37
2018-06-04T22:09:37.235Z,24.93
2018-06-04T22:12:18.624Z,27.17
2018-06-04T22:15:00.111Z,26.30
2018-06-04T22:17:41.637Z,27.00
2018-06-04T22:20:24.010Z,25.17
2018-06-04T22:23:05.558Z,25.87
2018-06-04T22:25:47.058Z,25.40
2018-06-04T22:28:28.434Z,26.50
2018-06-04T22:31:09.867Z,25.80
2018-06-04T22:33:51.367Z,27.17
2018-06-04T22:37:03.490Z,27.90
2018-06-04T22:39:44.977Z,27.73
2018-06-04T22:42:27.004Z,23.90
2018-06-04T22:45:08.422Z,24.17
2018-06-04T22:47:49.651Z,23.13
2018-06-04T22:50:31.469Z,22.30
2018-06-04T22:53:12.819Z,23.97
2018-06-04T22:55:54.670Z,22.50
2018-06-04T22:58:36.149Z,22.83
2018-06-04T23:01:17.483Z,23.07
2018-06-04T23:03:59.843Z,20.60
2018-06-04T23:06:41.094Z,21.53
2018-06-04T23:09:23.175Z,21.73
2018-06-04T23:12:04.564Z,20.40
2018-06-04T23:14:45.893Z,21.07
2018-06-04T23:17:27.351Z,20.50
2018-06-04T23:20:08.605Z,21.00
2018-06-04T23:22:50.141Z,22.50
2018-06-04T23:25:31.538Z,27.23
2018-06-04T23:28:13.022Z,20.83
2018-06-04T23:30:54.594Z,20.90
2018-06-04T23:33:36.080Z,20.30
2018-06-04T23:36:17.417Z,22.87
2018-06-04T23:38:59.287Z,21.93
2018-06-04T23:41:40.708Z,22.60
2018-06-04T23:44:22.695Z,21.50
2018-06-04T23:47:04.554Z,20.47
2018-06-04T23:49:45.851Z,20.70
2018-06-04T23:52:27.214Z,23.40
2018-06-04T23:55:08.631Z,21.63
2018-06-04T23:57:50.040Z,21.40
